Time;durP1;ratioP1;P1;durP2;ratioP2;P2;SDS_P1;SDS_P2;PMS_P1;PMS_P2;Temp;Humidity;BMP_temperature;BMP_pressure;BME280_temperature;BME280_humidity;BME280_pressure;Samples;Min_cycle;Max_cycle;Signal;HPM_P1;HPM_P2
2024/02/13 00:00:55;;;;;;;11.47;6.03;;;6.20;99.90;;;;;;5076706;28;20254;-83
2024/02/13 00:03:22;;;;;;;10.70;5.90;;;6.00;99.90;;;;;;5076240;28;20175;-84
2024/02/13 00:05:48;;;;;;;9.53;5.17;;;6.20;99.90;;;;;;5095196;28;20160;-84
2024/02/13 00:08:14;;;;;;;11.10;6.23;;;5.90;99.90;;;;;;5076613;28;20530;-85
2024/02/13 00:10:41;;;;;;;7.77;6.10;;;5.90;99.90;;;;;;5094622;28;20168;-84
2024/02/13 00:13:07;;;;;;;8.67;5.33;;;5.90;99.90;;;;;;5076426;28;20221;-90
2024/02/13 00:15:37;;;;;;;10.40;5.47;;;5.90;99.90;;;;;;5076259;28;20180;-87
2024/02/13 00:18:05;;;;;;;8.10;5.30;;;5.90;99.90;;;;;;5094301;28;20168;-84
2024/02/13 00:20:32;;;;;;;12.30;5.63;;;5.80;99.90;;;;;;5076507;28;20517;-84
2024/02/13 00:22:59;;;;;;;6.60;4.70;;;5.90;99.90;;;;;;5076257;28;20176;-84
2024/02/13 00:25:26;;;;;;;6.63;5.27;;;5.80;99.90;;;;;;5075961;28;20170;-84
2024/02/13 00:27:51;;;;;;;12.07;5.40;;;5.90;99.90;;;;;;5076301;28;20199;-84
2024/02/13 00:30:19;;;;;;;9.27;4.90;;;5.80;99.90;;;;;;5094214;28;20632;-84
2024/02/13 00:32:44;;;;;;;9.37;5.97;;;5.80;99.90;;;;;;5075873;28;20284;-84
2024/02/13 00:35:10;;;;;;;7.63;4.97;;;5.80;99.90;;;;;;5075999;28;20622;-84
2024/02/13 00:37:37;;;;;;;9.90;5.20;;;5.80;99.90;;;;;;5075878;28;20258;-83
2024/02/13 00:40:05;;;;;;;9.77;5.93;;;5.70;99.90;;;;;;5075980;28;20175;-83
2024/02/13 00:42:32;;;;;;;11.33;5.80;;;5.70;99.90;;;;;;5076156;28;20167;-82
2024/02/13 00:45:00;;;;;;;11.43;5.07;;;5.70;99.90;;;;;;5075817;28;20262;-88
2024/02/13 00:47:28;;;;;;;9.27;4.83;;;5.70;99.90;;;;;;5075487;28;20168;-83
2024/02/13 00:49:55;;;;;;;8.83;4.63;;;5.80;99.90;;;;;;5075833;28;20554;-84
2024/02/13 00:52:21;;;;;;;10.40;5.57;;;5.70;99.90;;;;;;5075920;28;20270;-84
2024/02/13 00:54:47;;;;;;;7.73;4.93;;;5.80;99.90;;;;;;5093956;28;20203;-83
2024/02/13 00:57:12;;;;;;;9.10;5.90;;;5.70;99.90;;;;;;5075682;28;20171;-83
2024/02/13 00:59:40;;;;;;;8.53;5.33;;;5.70;99.90;;;;;;5075404;28;20641;-83
2024/02/13 01:02:06;;;;;;;8.73;5.40;;;5.70;99.90;;;;;;5075291;28;20184;-83
2024/02/13 01:04:31;;;;;;;9.20;4.80;;;5.70;99.90;;;;;;5075848;28;20224;-84
2024/02/13 01:06:57;;;;;;;8.73;4.83;;;5.70;99.90;;;;;;5075315;28;20179;-85
2024/02/13 01:09:23;;;;;;;8.93;4.60;;;5.70;99.90;;;;;;5075534;28;20175;-84
2024/02/13 01:11:49;;;;;;;7.37;4.30;;;5.70;99.90;;;;;;5075848;28;20647;-85
2024/02/13 01:14:15;;;;;;;8.20;4.90;;;5.70;99.90;;;;;;5075505;28;20542;-84
2024/02/13 01:16:41;;;;;;;7.90;4.30;;;5.70;99.90;;;;;;5075159;28;20176;-83
2024/02/13 01:19:06;;;;;;;19.17;4.70;;;5.90;99.90;;;;;;5076314;28;20344;-84
2024/02/13 01:21:32;;;;;;;8.47;4.53;;;5.80;99.90;;;;;;5080501;28;20186;-84
2024/02/13 01:23:58;;;;;;;7.53;4.50;;;5.80;99.90;;;;;;5089774;28;20202;-83
2024/02/13 01:26:24;;;;;;;6.27;3.63;;;5.70;99.90;;;;;;5079602;28;20175;-83
2024/02/13 01:28:50;;;;;;;6.40;4.20;;;5.70;99.90;;;;;;5077264;28;20184;-83
2024/02/13 01:31:16;;;;;;;6.27;4.10;;;5.70;99.90;;;;;;5074891;28;20171;-84
2024/02/13 01:33:42;;;;;;;8.00;4.30;;;5.90;99.90;;;;;;5075059;28;20264;-84
2024/02/13 01:36:09;;;;;;;9.00;3.70;;;5.80;99.90;;;;;;5074994;28;20559;-82
2024/02/13 01:38:36;;;;;;;8.43;3.90;;;5.80;99.90;;;;;;5093291;28;20229;-84
2024/02/13 01:41:02;;;;;;;8.40;3.60;;;5.80;99.90;;;;;;5074755;28;20255;-83
2024/02/13 01:43:32;;;;;;;5.13;3.37;;;5.80;99.90;;;;;;5075025;28;20691;-83
2024/02/13 01:46:05;;;;;;;6.07;3.57;;;5.90;99.90;;;;;;5092597;28;20183;-82
2024/02/13 01:48:32;;;;;;;5.63;3.57;;;5.90;99.90;;;;;;5075030;28;20186;-85
2024/02/13 01:51:00;;;;;;;6.83;3.83;;;5.70;99.90;;;;;;5074854;28;20171;-84
2024/02/13 01:53:28;;;;;;;6.87;3.13;;;5.80;99.90;;;;;;5074926;28;20214;-84
2024/02/13 01:55:56;;;;;;;8.43;3.30;;;5.80;99.90;;;;;;5074810;28;20171;-83
2024/02/13 01:58:22;;;;;;;8.80;3.80;;;5.80;99.90;;;;;;5076812;28;20195;-83
2024/02/13 02:00:58;;;;;;;11.07;3.97;;;5.80;99.90;;;;;;5075045;28;20222;-85
2024/02/13 02:03:24;;;;;;;6.67;3.03;;;5.80;99.90;;;;;;5092857;28;20308;-83
2024/02/13 02:05:50;;;;;;;9.03;3.30;;;5.70;99.90;;;;;;5074476;28;20176;-85
2024/02/13 02:08:18;;;;;;;10.13;3.80;;;5.80;99.90;;;;;;5074825;28;20179;-84
2024/02/13 02:10:44;;;;;;;7.03;3.40;;;5.80;99.90;;;;;;5074887;28;20174;-83
2024/02/13 02:13:12;;;;;;;5.93;3.37;;;5.70;99.90;;;;;;5074528;28;20215;-84
2024/02/13 02:15:41;;;;;;;7.30;3.47;;;5.60;99.90;;;;;;5074554;28;20693;-83
2024/02/13 02:18:09;;;;;;;7.60;3.73;;;5.60;99.90;;;;;;5076038;28;20179;-84
2024/02/13 02:20:36;;;;;;;8.67;3.90;;;5.60;99.90;;;;;;5078873;28;20239;-84
2024/02/13 02:23:02;;;;;;;8.80;3.57;;;5.70;99.90;;;;;;5078745;28;20168;-83
2024/02/13 02:25:31;;;;;;;9.30;4.13;;;5.60;99.90;;;;;;5077840;28;20297;-83
2024/02/13 02:27:56;;;;;;;8.63;3.37;;;5.60;99.90;;;;;;5078413;28;20179;-83
2024/02/13 02:30:22;;;;;;;10.13;3.07;;;5.60;99.90;;;;;;5078211;28;20549;-84
2024/02/13 02:32:48;;;;;;;6.20;2.80;;;5.60;99.90;;;;;;5078447;28;20206;-83
2024/02/13 02:35:16;;;;;;;9.53;3.90;;;5.60;99.90;;;;;;5078395;28;20178;-83
2024/02/13 02:37:47;;;;;;;9.93;3.50;;;5.60;99.90;;;;;;5096890;28;20177;-85
2024/02/13 02:40:14;;;;;;;6.70;3.33;;;5.70;99.90;;;;;;5078449;28;20550;-84
2024/02/13 02:42:39;;;;;;;6.60;3.30;;;5.60;99.90;;;;;;5077973;28;20270;-90
2024/02/13 02:45:06;;;;;;;8.13;2.90;;;5.70;99.90;;;;;;5078359;28;20262;-83
2024/02/13 02:47:34;;;;;;;5.40;3.00;;;5.70;99.90;;;;;;5077692;28;20658;-89
2024/02/13 02:50:00;;;;;;;5.97;3.03;;;5.70;99.90;;;;;;5078188;28;20176;-83
2024/02/13 02:52:26;;;;;;;8.03;2.97;;;5.60;99.90;;;;;;5077892;28;20175;-82
2024/02/13 02:54:51;;;;;;;8.07;3.07;;;5.70;99.90;;;;;;5078140;28;20211;-84
2024/02/13 02:57:17;;;;;;;5.90;3.27;;;5.80;99.90;;;;;;5077377;28;20272;-83
2024/02/13 02:59:45;;;;;;;7.93;2.93;;;5.90;99.90;;;;;;5077992;28;20218;-84
2024/02/13 03:02:11;;;;;;;6.30;2.90;;;5.70;99.90;;;;;;5077703;28;20179;-83
2024/02/13 03:04:37;;;;;;;6.07;2.70;;;5.80;99.90;;;;;;5095913;28;20168;-85
2024/02/13 03:07:03;;;;;;;7.77;3.30;;;5.80;99.90;;;;;;5078183;28;20254;-83
2024/02/13 03:09:29;;;;;;;6.73;3.03;;;5.80;99.90;;;;;;5077865;28;20642;-84
2024/02/13 03:11:55;;;;;;;4.57;2.77;;;5.70;99.90;;;;;;5077639;28;20213;-83
2024/02/13 03:14:21;;;;;;;5.80;3.17;;;5.70;99.90;;;;;;5077380;28;20203;-83
2024/02/13 03:16:47;;;;;;;6.23;2.90;;;5.80;99.90;;;;;;5077656;28;20541;-83
2024/02/13 03:19:13;;;;;;;6.63;2.83;;;5.70;99.90;;;;;;5077295;28;20183;-82
2024/02/13 03:21:39;;;;;;;4.83;2.80;;;5.70;99.90;;;;;;5077588;28;20168;-85
2024/02/13 03:24:05;;;;;;;5.70;3.30;;;5.70;99.90;;;;;;5077454;28;20183;-84
2024/02/13 03:26:34;;;;;;;7.57;3.17;;;5.70;99.90;;;;;;5077104;28;20176;-85
2024/02/13 03:29:01;;;;;;;9.67;3.07;;;5.60;99.90;;;;;;5095129;28;20192;-83
2024/02/13 03:31:27;;;;;;;7.50;3.20;;;5.60;99.90;;;;;;5077252;28;20266;-84
2024/02/13 03:33:53;;;;;;;5.73;2.77;;;5.60;99.90;;;;;;5077104;28;20299;-85
2024/02/13 03:36:19;;;;;;;6.30;2.77;;;5.70;99.90;;;;;;5077201;28;20171;-83
2024/02/13 03:38:48;;;;;;;7.80;3.50;;;5.60;99.90;;;;;;5077037;28;20167;-83
2024/02/13 03:41:13;;;;;;;7.93;2.90;;;5.60;99.90;;;;;;5076856;28;20171;-84
2024/02/13 03:43:43;;;;;;;9.40;3.20;;;5.60;99.90;;;;;;5076717;28;20225;-83
2024/02/13 03:46:09;;;;;;;8.37;3.17;;;5.50;99.90;;;;;;5095395;28;20168;-89
2024/02/13 03:48:35;;;;;;;9.43;3.40;;;5.50;99.90;;;;;;5076702;28;20217;-84
2024/02/13 03:51:01;;;;;;;10.03;2.80;;;5.50;99.90;;;;;;5076921;28;20167;-83
2024/02/13 03:53:27;;;;;;;9.13;3.37;;;5.50;99.90;;;;;;5076752;28;20256;-83
2024/02/13 03:55:52;;;;;;;6.03;3.20;;;5.50;99.90;;;;;;5076556;28;20233;-83
2024/02/13 03:58:18;;;;;;;7.67;3.00;;;5.50;99.90;;;;;;5076800;28;20666;-81
2024/02/13 04:00:44;;;;;;;6.93;3.20;;;5.60;99.90;;;;;;5076604;28;20583;-85
2024/02/13 04:03:11;;;;;;;5.43;3.57;;;5.50;99.90;;;;;;5076769;28;20257;-83
2024/02/13 04:05:38;;;;;;;8.27;3.37;;;5.60;99.90;;;;;;5076525;28;20171;-84
2024/02/13 04:08:08;;;;;;;9.13;3.03;;;5.50;99.90;;;;;;5077371;28;20168;-84
2024/02/13 04:10:34;;;;;;;7.70;2.93;;;5.40;99.90;;;;;;5077727;28;20170;-84
2024/02/13 04:13:00;;;;;;;6.53;2.90;;;5.40;99.90;;;;;;5076516;28;20248;-83
2024/02/13 04:15:26;;;;;;;8.30;3.23;;;5.50;99.90;;;;;;5094138;28;20251;-83
2024/02/13 04:17:51;;;;;;;10.60;4.00;;;5.60;99.90;;;;;;5076573;28;20630;-81
2024/02/13 04:20:17;;;;;;;11.23;3.53;;;5.40;99.90;;;;;;5076289;28;20568;-88
2024/02/13 04:22:43;;;;;;;7.80;3.43;;;5.50;99.90;;;;;;5079529;28;20174;-83
2024/02/13 04:25:09;;;;;;;8.07;3.53;;;5.50;99.90;;;;;;5076955;28;20178;-83
2024/02/13 04:27:37;;;;;;;7.20;3.47;;;5.60;99.90;;;;;;5082063;28;20216;-82
2024/02/13 04:30:04;;;;;;;6.47;3.30;;;5.60;99.90;;;;;;5076261;28;20182;-83
2024/02/13 04:32:29;;;;;;;7.17;3.60;;;5.50;99.90;;;;;;5094177;28;20168;-83
2024/02/13 04:34:55;;;;;;;6.40;3.50;;;5.50;99.90;;;;;;5075695;28;20208;-83
2024/02/13 04:37:22;;;;;;;11.40;4.53;;;5.50;99.90;;;;;;5075475;28;20626;-83
2024/02/13 04:39:48;;;;;;;8.93;3.50;;;5.50;99.90;;;;;;5075609;28;20179;-84
2024/02/13 04:42:15;;;;;;;12.23;3.87;;;5.40;99.90;;;;;;5075702;28;20266;-83
2024/02/13 04:44:41;;;;;;;9.83;3.87;;;5.40;99.90;;;;;;5076163;28;20544;-82
2024/02/13 04:47:06;;;;;;;8.03;3.67;;;5.50;99.90;;;;;;5075708;28;20182;-81
2024/02/13 04:49:32;;;;;;;9.67;3.77;;;5.40;99.90;;;;;;5075901;28;20180;-83
2024/02/13 04:51:58;;;;;;;11.13;3.80;;;5.40;99.90;;;;;;5076059;28;20229;-83
2024/02/13 04:54:24;;;;;;;8.77;3.67;;;5.50;99.90;;;;;;5075558;28;20207;-88
2024/02/13 04:56:50;;;;;;;7.87;3.43;;;5.50;99.90;;;;;;5075922;28;20174;-82
2024/02/13 04:59:18;;;;;;;9.03;3.90;;;5.50;99.90;;;;;;5075758;28;20253;-83
2024/02/13 05:01:45;;;;;;;8.33;3.57;;;5.60;99.90;;;;;;5075217;28;20209;-84
2024/02/13 05:09:23;;;;;;;8.40;3.77;;;5.40;99.90;;;;;;5093320;28;20179;-83
2024/02/13 05:11:49;;;;;;;11.13;3.60;;;5.40;99.90;;;;;;5075288;28;20176;-85
2024/02/13 05:14:15;;;;;;;14.73;4.33;;;5.50;99.90;;;;;;5075233;28;20268;-84
2024/02/13 05:16:43;;;;;;;9.73;4.30;;;5.40;99.90;;;;;;5075458;28;20175;-83
2024/02/13 05:19:09;;;;;;;12.10;3.67;;;5.30;99.90;;;;;;5075402;28;20535;-86
2024/02/13 05:21:35;;;;;;;13.10;4.37;;;5.40;99.90;;;;;;5075197;28;20691;-83
2024/02/13 05:24:04;;;;;;;13.07;4.63;;;5.30;99.90;;;;;;5075169;28;20175;-84
2024/02/13 05:26:31;;;;;;;12.70;4.43;;;5.30;99.90;;;;;;5075229;28;20609;-84
2024/02/13 05:28:57;;;;;;;10.87;4.00;;;5.30;99.90;;;;;;5075192;28;20186;-90
2024/02/13 05:31:23;;;;;;;10.97;3.83;;;5.30;99.90;;;;;;5075288;28;20168;-83
2024/02/13 05:33:52;;;;;;;11.33;4.73;;;5.20;99.90;;;;;;5074891;28;20206;-84
2024/02/13 05:36:18;;;;;;;13.27;4.23;;;5.30;99.90;;;;;;5075177;28;20168;-83
2024/02/13 05:38:44;;;;;;;11.73;4.77;;;5.30;99.90;;;;;;5074271;28;20194;-87
2024/02/13 05:41:10;;;;;;;15.13;5.50;;;5.20;99.90;;;;;;5075053;28;20196;-82
2024/02/13 05:43:38;;;;;;;16.27;4.90;;;5.20;99.90;;;;;;5074645;28;20198;-83
2024/02/13 05:46:04;;;;;;;19.17;5.13;;;5.20;99.90;;;;;;5074943;28;20202;-84
2024/02/13 05:48:29;;;;;;;12.87;5.83;;;5.30;99.90;;;;;;5074894;28;20251;-84
2024/02/13 05:50:55;;;;;;;13.37;5.57;;;5.20;99.90;;;;;;5074859;28;20174;-86
2024/02/13 05:53:21;;;;;;;13.07;5.47;;;5.20;99.90;;;;;;5074500;28;20243;-82
2024/02/13 05:55:48;;;;;;;15.53;6.67;;;5.20;99.90;;;;;;5092699;28;20240;-83
2024/02/13 05:58:14;;;;;;;11.67;5.50;;;5.20;99.90;;;;;;5092578;28;20258;-84
2024/02/13 06:00:40;;;;;;;14.73;5.67;;;5.10;99.90;;;;;;5074735;28;20692;-82
2024/02/13 06:03:07;;;;;;;12.30;5.43;;;5.30;99.90;;;;;;5074329;28;20580;-85
2024/02/13 06:05:32;;;;;;;14.90;5.77;;;5.20;99.90;;;;;;5074435;28;20527;-85
2024/02/13 06:07:58;;;;;;;14.23;5.77;;;5.20;99.90;;;;;;5074128;28;20167;-83
2024/02/13 06:10:27;;;;;;;13.43;5.90;;;5.20;99.90;;;;;;5074425;28;20186;-82
2024/02/13 06:12:52;;;;;;;12.47;6.23;;;5.20;99.90;;;;;;5074597;28;20172;-86
2024/02/13 06:15:18;;;;;;;17.60;6.93;;;5.20;99.90;;;;;;5074886;28;20229;-84
2024/02/13 06:17:44;;;;;;;16.07;5.67;;;5.30;99.90;;;;;;5084395;28;20175;-83
2024/02/13 06:20:12;;;;;;;18.50;7.30;;;5.20;99.90;;;;;;5074693;28;20183;-87
2024/02/13 06:22:38;;;;;;;12.93;6.30;;;5.20;99.90;;;;;;5074310;28;20299;-83
2024/02/13 06:25:05;;;;;;;14.87;6.90;;;5.20;99.90;;;;;;5074399;28;20306;-83
2024/02/13 06:27:35;;;;;;;19.30;6.70;;;5.20;99.90;;;;;;5074164;28;20312;-83
2024/02/13 06:30:02;;;;;;;16.33;7.53;;;5.20;99.90;;;;;;5074380;28;20172;-84
2024/02/13 06:32:27;;;;;;;22.47;7.37;;;5.30;99.90;;;;;;5092509;28;20316;-82
2024/02/13 06:34:54;;;;;;;19.23;7.13;;;5.20;99.90;;;;;;5073774;28;20303;-85
2024/02/13 06:37:23;;;;;;;16.47;6.80;;;5.20;99.90;;;;;;5074513;28;20224;-83
2024/02/13 06:39:49;;;;;;;17.73;8.07;;;5.40;99.90;;;;;;5074757;28;20259;-85
2024/02/13 06:42:15;;;;;;;16.23;7.43;;;5.20;99.90;;;;;;5075122;28;20581;-89
2024/02/13 06:44:41;;;;;;;17.60;8.40;;;5.20;99.90;;;;;;5074285;28;20242;-84
2024/02/13 06:47:08;;;;;;;15.20;7.47;;;5.20;99.90;;;;;;5074230;28;20182;-84
2024/02/13 06:49:37;;;;;;;19.13;7.87;;;5.20;99.90;;;;;;5074113;28;20179;-84
2024/02/13 06:52:04;;;;;;;20.47;8.47;;;5.20;99.90;;;;;;5074149;28;20552;-84
2024/02/13 06:54:30;;;;;;;20.03;8.50;;;5.30;99.90;;;;;;5074283;28;20225;-84
2024/02/13 06:56:57;;;;;;;16.07;7.57;;;5.30;99.90;;;;;;5074227;28;20591;-84
2024/02/13 06:59:22;;;;;;;22.03;8.77;;;5.30;99.90;;;;;;5074152;28;20233;-84
2024/02/13 07:01:48;;;;;;;16.10;7.90;;;5.20;99.90;;;;;;5074128;28;20197;-84
2024/02/13 07:04:14;;;;;;;18.27;8.17;;;5.30;99.90;;;;;;5074942;28;20214;-84
2024/02/13 07:06:40;;;;;;;15.87;7.77;;;5.40;99.90;;;;;;5077820;28;20175;-83
2024/02/13 07:09:06;;;;;;;18.03;8.37;;;5.40;99.90;;;;;;5095844;28;20647;-85
2024/02/13 07:11:32;;;;;;;14.47;7.07;;;5.30;99.90;;;;;;5078833;28;20261;-87
2024/02/13 07:14:00;;;;;;;17.23;7.63;;;5.30;99.90;;;;;;5079312;28;20199;-84
2024/02/13 07:16:25;;;;;;;15.90;8.37;;;5.50;99.90;;;;;;5079037;28;20190;-84
2024/02/13 07:18:51;;;;;;;18.50;8.47;;;5.40;99.90;;;;;;5095453;28;20175;-85
2024/02/13 07:21:19;;;;;;;16.73;8.67;;;5.40;99.90;;;;;;5076955;28;20234;-84
2024/02/13 07:23:45;;;;;;;16.73;8.73;;;5.40;99.90;;;;;;5076997;28;20471;-83
2024/02/13 07:26:11;;;;;;;19.03;8.63;;;5.40;99.90;;;;;;5076985;28;20258;-84
2024/02/13 07:28:38;;;;;;;18.77;8.10;;;5.50;99.90;;;;;;5077031;28;20654;-83
2024/02/13 07:31:05;;;;;;;18.87;8.00;;;5.40;99.90;;;;;;5094791;28;20179;-85
2024/02/13 07:33:31;;;;;;;18.20;8.83;;;5.40;99.90;;;;;;5076141;28;20215;-84
2024/02/13 07:35:59;;;;;;;22.83;10.57;;;5.50;99.90;;;;;;5095605;28;20185;-84
2024/02/13 07:38:24;;;;;;;24.10;9.77;;;5.40;99.90;;;;;;5076789;28;20172;-83
2024/02/13 07:40:50;;;;;;;18.20;10.23;;;5.40;99.90;;;;;;5076826;28;20277;-84
2024/02/13 07:43:16;;;;;;;25.50;9.63;;;5.50;99.90;;;;;;5094919;28;20185;-83
2024/02/13 07:45:42;;;;;;;18.33;8.83;;;5.50;99.90;;;;;;5076603;28;20180;-83
2024/02/13 07:48:11;;;;;;;20.47;8.70;;;5.70;99.90;;;;;;5076786;28;20182;-83
2024/02/13 07:50:37;;;;;;;22.10;9.77;;;5.50;99.90;;;;;;5076751;28;20580;-83
2024/02/13 07:53:04;;;;;;;19.57;9.73;;;5.70;99.90;;;;;;5076525;28;20739;-84
2024/02/13 07:55:30;;;;;;;20.87;8.67;;;5.70;99.90;;;;;;5076469;28;20179;-83
2024/02/13 07:57:56;;;;;;;21.60;9.30;;;5.80;99.90;;;;;;5076353;28;20286;-83
2024/02/13 08:00:23;;;;;;;22.47;9.53;;;6.10;99.90;;;;;;5076579;28;20651;-83
2024/02/13 08:02:51;;;;;;;20.80;9.70;;;5.80;99.90;;;;;;5094226;28;20210;-84
2024/02/13 08:05:17;;;;;;;18.83;9.57;;;6.00;99.90;;;;;;5075908;28;20236;-83
2024/02/13 08:07:42;;;;;;;19.30;9.10;;;5.90;99.90;;;;;;5075843;28;20190;-84
2024/02/13 08:10:11;;;;;;;19.47;9.83;;;5.90;99.90;;;;;;5075920;28;20172;-82
2024/02/13 08:12:37;;;;;;;20.77;9.43;;;6.00;99.90;;;;;;5076081;28;20182;-84
2024/02/13 08:15:03;;;;;;;22.20;9.90;;;6.10;99.90;;;;;;5075132;28;20691;-84
2024/02/13 08:17:29;;;;;;;24.17;9.90;;;6.20;99.90;;;;;;5075300;28;20644;-89
2024/02/13 08:19:56;;;;;;;31.03;9.37;;;6.40;99.90;;;;;;5076111;28;20183;-84
2024/02/13 08:22:22;;;;;;;18.17;9.40;;;6.40;99.90;;;;;;5076035;28;20632;-84
2024/02/13 08:24:48;;;;;;;16.33;7.63;;;6.50;99.90;;;;;;5096816;28;20212;-86
2024/02/13 08:27:18;;;;;;;18.50;9.50;;;6.60;99.90;;;;;;5077209;28;20530;-84
2024/02/13 08:29:44;;;;;;;17.97;8.13;;;6.60;99.90;;;;;;5076462;28;20199;-85
2024/02/13 08:32:09;;;;;;;17.43;8.67;;;6.70;99.90;;;;;;5075550;28;20221;-85
2024/02/13 08:34:35;;;;;;;17.87;8.87;;;6.70;99.90;;;;;;5081731;28;20686;-84
2024/02/13 08:37:01;;;;;;;17.50;8.07;;;6.70;99.90;;;;;;5080518;28;20302;-84
2024/02/13 08:39:26;;;;;;;14.97;7.57;;;6.80;99.90;;;;;;5075519;28;20187;-84
2024/02/13 08:41:52;;;;;;;17.80;7.63;;;6.90;99.90;;;;;;5093842;28;20175;-83
2024/02/13 08:44:19;;;;;;;13.20;7.00;;;7.10;99.90;;;;;;5093957;28;20596;-84
2024/02/13 08:46:45;;;;;;;16.07;7.50;;;7.00;99.90;;;;;;5075671;28;20654;-85
2024/02/13 08:49:11;;;;;;;13.93;7.87;;;7.30;99.90;;;;;;5076175;28;20696;-86
2024/02/13 08:51:37;;;;;;;13.07;6.30;;;7.40;99.90;;;;;;5075467;28;20217;-85
2024/02/13 08:54:03;;;;;;;14.77;7.07;;;7.20;99.90;;;;;;5075716;28;20207;-85
2024/02/13 08:56:29;;;;;;;13.23;6.77;;;7.30;99.90;;;;;;5075432;28;20633;-84
2024/02/13 08:58:56;;;;;;;11.57;6.23;;;7.20;99.90;;;;;;5075646;28;20196;-84
2024/02/13 09:01:21;;;;;;;13.87;6.77;;;7.30;99.90;;;;;;5081934;28;20293;-84
2024/02/13 09:03:48;;;;;;;13.63;5.83;;;7.40;99.90;;;;;;5088876;28;20640;-88
2024/02/13 09:06:15;;;;;;;14.83;6.67;;;7.50;99.90;;;;;;5076477;28;20225;-87
2024/02/13 09:08:43;;;;;;;13.70;7.10;;;7.30;99.90;;;;;;5075361;28;20176;-83
2024/02/13 09:11:12;;;;;;;11.60;6.23;;;7.30;99.90;;;;;;5075492;28;20178;-83
2024/02/13 09:13:38;;;;;;;11.50;6.40;;;7.30;99.90;;;;;;5075563;28;20650;-84
2024/02/13 09:16:05;;;;;;;18.27;7.87;;;7.10;99.90;;;;;;5093239;28;20163;-84
2024/02/13 09:18:31;;;;;;;12.10;6.13;;;7.30;99.90;;;;;;5075306;28;20291;-84
2024/02/13 09:20:58;;;;;;;11.37;6.13;;;7.30;99.90;;;;;;5074846;28;20639;-86
2024/02/13 09:23:27;;;;;;;12.30;5.80;;;7.50;99.90;;;;;;5075498;28;20179;-84
2024/02/13 09:25:55;;;;;;;10.57;6.03;;;7.60;99.90;;;;;;5093163;28;20182;-83
2024/02/13 09:28:25;;;;;;;16.57;6.10;;;7.70;99.90;;;;;;5074369;28;20171;-84
2024/02/13 09:30:50;;;;;;;9.67;5.17;;;7.80;99.90;;;;;;5074146;28;20176;-84
2024/02/13 09:33:21;;;;;;;12.37;5.63;;;8.00;99.90;;;;;;5074558;28;20199;-83
2024/02/13 09:35:50;;;;;;;13.83;5.77;;;8.00;99.90;;;;;;5074710;28;20175;-84
2024/02/13 09:38:19;;;;;;;9.40;5.00;;;8.10;99.90;;;;;;5074711;28;20546;-84
2024/02/13 09:40:47;;;;;;;8.47;4.37;;;8.30;99.90;;;;;;5074234;28;20202;-84
2024/02/13 09:43:13;;;;;;;11.60;5.57;;;8.20;99.90;;;;;;5074217;28;20175;-84
2024/02/13 09:45:41;;;;;;;12.07;5.77;;;8.30;99.90;;;;;;5074145;28;20264;-83
2024/02/13 09:48:19;;;;;;;16.23;5.43;;;8.30;99.90;;;;;;5074118;28;20183;-84
2024/02/13 09:50:46;;;;;;;13.03;5.47;;;8.50;99.90;;;;;;5074625;28;20541;-84
2024/02/13 09:53:22;;;;;;;10.63;4.50;;;8.80;99.90;;;;;;5074090;28;20293;-84
2024/02/13 09:55:49;;;;;;;10.73;4.53;;;8.90;99.90;;;;;;5074908;28;20187;-84
2024/02/13 09:58:15;;;;;;;10.67;4.37;;;9.00;99.90;;;;;;5074325;28;20188;-85
2024/02/13 10:00:43;;;;;;;9.57;4.30;;;9.10;99.90;;;;;;5074609;28;20195;-84
2024/02/13 10:03:11;;;;;;;10.17;4.27;;;9.00;99.90;;;;;;5074696;28;20229;-84
2024/02/13 10:05:37;;;;;;;14.47;4.77;;;9.10;99.90;;;;;;5074670;28;20206;-84
2024/02/13 10:08:06;;;;;;;8.50;4.73;;;9.00;99.90;;;;;;5074737;28;20187;-84
2024/02/13 10:10:32;;;;;;;9.73;4.10;;;8.90;99.90;;;;;;5074981;28;20176;-85
2024/02/13 10:13:00;;;;;;;16.57;4.60;;;9.30;99.90;;;;;;5074542;28;20263;-84
2024/02/13 10:15:43;;;;;;;8.27;3.40;;;9.30;99.90;;;;;;5074331;28;20182;-84
2024/02/13 10:18:11;;;;;;;7.90;3.43;;;9.20;99.90;;;;;;5074842;28;20178;-84
2024/02/13 10:20:38;;;;;;;8.80;3.43;;;9.40;99.90;;;;;;5075216;28;20225;-84
2024/02/13 10:23:05;;;;;;;7.70;3.50;;;9.20;99.90;;;;;;5074697;28;20616;-85
2024/02/13 10:25:34;;;;;;;6.67;3.13;;;9.10;99.90;;;;;;5074072;28;20168;-85
2024/02/13 10:28:01;;;;;;;8.90;4.20;;;9.20;99.90;;;;;;5074214;28;20175;-85
2024/02/13 10:30:29;;;;;;;7.13;3.30;;;9.50;99.90;;;;;;5074654;28;20268;-84
2024/02/13 10:32:59;;;;;;;7.27;3.70;;;9.50;99.90;;;;;;5075685;28;20179;-83
2024/02/13 10:35:25;;;;;;;7.30;3.20;;;9.40;99.90;;;;;;5073485;28;20171;-84
2024/02/13 10:37:52;;;;;;;4.73;2.63;;;9.50;99.90;;;;;;5074112;28;20175;-84
2024/02/13 10:40:28;;;;;;;8.00;3.47;;;9.70;99.90;;;;;;5076953;28;20637;-84
2024/02/13 10:42:58;;;;;;;7.93;3.70;;;9.70;99.90;;;;;;5077227;28;20199;-86
2024/02/13 10:45:32;;;;;;;8.77;3.87;;;9.70;99.90;;;;;;5077796;28;20286;-86
2024/02/13 10:48:13;;;;;;;8.87;3.60;;;9.70;99.90;;;;;;5083143;28;20212;-85
2024/02/13 10:50:40;;;;;;;6.80;3.40;;;9.80;99.90;;;;;;5078112;28;20191;-85
2024/02/13 10:53:07;;;;;;;8.43;3.60;;;9.90;99.90;;;;;;5077143;28;20677;-85
2024/02/13 10:55:34;;;;;;;10.17;3.23;;;9.90;99.90;;;;;;5077183;28;20640;-85
2024/02/13 10:58:00;;;;;;;4.33;2.50;;;9.80;99.90;;;;;;5077175;28;20192;-85
2024/02/13 11:00:27;;;;;;;6.77;3.27;;;9.90;99.90;;;;;;5077367;28;20195;-90
2024/02/13 11:02:54;;;;;;;4.77;2.80;;;9.80;99.90;;;;;;5081819;28;20176;-85
2024/02/13 11:05:20;;;;;;;6.50;3.60;;;9.90;99.90;;;;;;5077729;28;20200;-84
2024/02/13 11:07:46;;;;;;;4.07;2.80;;;9.70;99.90;;;;;;5077267;28;20259;-84
2024/02/13 11:10:12;;;;;;;7.73;3.07;;;9.90;99.90;;;;;;5077423;28;20594;-85
2024/02/13 11:12:39;;;;;;;9.30;3.90;;;10.00;99.90;;;;;;5077785;28;20719;-84
2024/02/13 11:15:12;;;;;;;5.43;3.53;;;10.10;99.90;;;;;;5077439;28;20215;-85
2024/02/13 11:17:53;;;;;;;5.13;2.77;;;10.20;99.90;;;;;;5076955;28;20178;-85
2024/02/13 11:20:24;;;;;;;6.57;4.07;;;10.10;99.90;;;;;;5077387;28;20182;-84
2024/02/13 11:22:51;;;;;;;8.10;3.00;;;10.10;99.90;;;;;;5077044;28;20213;-85
2024/02/13 11:25:17;;;;;;;8.27;3.20;;;10.20;99.90;;;;;;5076506;28;20271;-84
2024/02/13 11:27:44;;;;;;;8.70;3.30;;;10.40;99.90;;;;;;5077166;28;20734;-85
2024/02/13 11:30:20;;;;;;;6.80;3.70;;;10.50;99.90;;;;;;5076902;28;20165;-85
2024/02/13 11:32:46;;;;;;;7.87;3.27;;;10.60;99.90;;;;;;5077207;28;20529;-85
2024/02/13 11:35:19;;;;;;;10.63;3.30;;;10.60;99.90;;;;;;5095281;28;20236;-85
2024/02/13 11:37:46;;;;;;;5.43;3.33;;;10.50;99.90;;;;;;5077615;28;20628;-84
2024/02/13 11:40:17;;;;;;;7.63;3.23;;;10.50;99.90;;;;;;5076592;28;20177;-85
2024/02/13 11:42:44;;;;;;;8.53;2.67;;;10.40;99.90;;;;;;5079020;28;20200;-85
2024/02/13 11:45:20;;;;;;;8.33;3.13;;;10.40;99.90;;;;;;5076715;28;20620;-84
2024/02/13 11:47:46;;;;;;;5.10;2.87;;;10.50;99.90;;;;;;5076786;28;20307;-87
2024/02/13 11:50:11;;;;;;;5.73;2.90;;;10.30;99.90;;;;;;5076560;28;20208;-84
2024/02/13 11:52:38;;;;;;;9.00;3.77;;;10.50;99.90;;;;;;5076896;28;20188;-85
2024/02/13 11:55:05;;;;;;;5.97;3.20;;;10.70;99.90;;;;;;5078681;28;20844;-87
2024/02/13 11:57:31;;;;;;;5.47;2.90;;;10.70;99.90;;;;;;5097742;28;20209;-84
2024/02/13 11:59:58;;;;;;;6.13;3.03;;;10.70;99.90;;;;;;5077838;28;20187;-83
2024/02/13 12:02:24;;;;;;;7.13;3.10;;;11.00;99.90;;;;;;5077425;28;20523;-87
2024/02/13 12:04:51;;;;;;;7.33;3.20;;;11.10;99.90;;;;;;5077089;28;20639;-86
2024/02/13 12:07:17;;;;;;;5.77;2.70;;;10.90;99.90;;;;;;5076612;28;20182;-84
2024/02/13 12:09:52;;;;;;;7.47;2.57;;;10.90;99.90;;;;;;5075840;28;20189;-85
2024/02/13 12:12:20;;;;;;;8.47;2.73;;;11.00;99.90;;;;;;5076363;28;20181;-85
2024/02/13 12:14:46;;;;;;;8.90;3.50;;;11.10;99.90;;;;;;5076320;28;20683;-85
2024/02/13 12:17:12;;;;;;;5.37;2.67;;;11.30;99.90;;;;;;5076328;28;20228;-84
2024/02/13 12:19:40;;;;;;;9.50;3.17;;;11.10;99.90;;;;;;5076106;28;20226;-86
2024/02/13 12:22:09;;;;;;;6.40;3.03;;;11.30;99.90;;;;;;5076154;28;20190;-85
2024/02/13 12:24:46;;;;;;;6.77;3.33;;;11.40;99.90;;;;;;5075570;28;20191;-85
2024/02/13 12:27:15;;;;;;;4.83;2.40;;;11.40;99.90;;;;;;5076006;28;20177;-85
2024/02/13 12:29:44;;;;;;;7.80;2.37;;;11.50;99.90;;;;;;5075734;28;20185;-85
2024/02/13 12:32:16;;;;;;;5.50;3.07;;;11.60;99.90;;;;;;5076327;28;20180;-83
2024/02/13 12:34:48;;;;;;;4.57;2.53;;;11.50;99.90;;;;;;5076680;28;20210;-85
2024/02/13 12:37:16;;;;;;;5.43;2.50;;;11.60;99.90;;;;;;5076961;28;20246;-85
2024/02/13 12:39:43;;;;;;;4.43;2.60;;;11.50;99.90;;;;;;5076610;28;20169;-85
2024/02/13 12:42:12;;;;;;;5.73;2.30;;;11.40;99.90;;;;;;5075904;28;20170;-84
2024/02/13 12:44:42;;;;;;;4.40;2.10;;;11.40;99.90;;;;;;5094387;28;20290;-84
2024/02/13 12:47:13;;;;;;;4.90;2.50;;;11.30;99.90;;;;;;5076923;28;20175;-84
2024/02/13 12:49:41;;;;;;;7.47;2.90;;;11.30;99.90;;;;;;5076093;28;20177;-86
2024/02/13 12:52:07;;;;;;;7.73;2.40;;;11.40;99.90;;;;;;5075673;28;20168;-84
2024/02/13 12:54:33;;;;;;;6.30;2.40;;;11.40;99.90;;;;;;5075967;28;20636;-86